Time;durP1;ratioP1;P1;durP2;ratioP2;P2;SDS_P1;SDS_P2;PMS_P1;PMS_P2;Temp;Humidity;BMP_temperature;BMP_pressure;BME280_temperature;BME280_humidity;BME280_pressure;Samples;Min_cycle;Max_cycle;Signal;HPM_P1;HPM_P2
2022/05/23 00:00:41;;;;;;;;;;;;;;;;;;5118213;28;19998;-82
2022/05/23 00:03:06;;;;;;;;;;;;;;;;;;5118265;28;20346;-81
2022/05/23 00:05:32;;;;;;;;;;;;;;;;;;5118243;28;20404;-80
2022/05/23 00:07:59;;;;;;;;;;;;;;;;;;5118439;28;20014;-80
2022/05/23 00:10:24;;;;;;;;;;;;;;;;;;5118091;28;19922;-81
2022/05/23 00:12:49;;;;;;;;;;;;;;;;;;5118000;28;20248;-81
2022/05/23 00:15:16;;;;;;;;;;;;;;;;;;5116434;28;20337;-80
2022/05/23 00:17:41;;;;;;;;;;;;;;;;;;5117573;28;19922;-80
2022/05/23 00:20:07;;;;;;;;;;;;;;;;;;5117636;28;19911;-80
2022/05/23 00:22:32;;;;;;;;;;;;;;;;;;5116316;28;19916;-80
2022/05/23 00:24:58;;;;;;;;;;;;;;;;;;5117748;28;19915;-80
2022/05/23 00:27:23;;;;;;;;;;;;;;;;;;5115343;28;19912;-80
2022/05/23 00:29:49;;;;;;;;;;;;;;;;;;5117376;28;19916;-81
2022/05/23 00:37:42;;;;;;;;;;;;;;;;;;5117259;28;19972;-81
2022/05/23 00:40:08;;;;;;;;;;;;;;;;;;5115940;28;19916;-81
2022/05/23 00:45:17;;;;;;;;;;;;;;;;;;5116008;28;19937;-81
2022/05/23 00:47:43;;;;;;;;;;;;;;;;;;5098565;28;20317;-82
2022/05/23 00:50:09;;;;;;;;;;;;;;;;;;5115718;28;19923;-80
2022/05/23 00:52:38;;;;;;;;;;;;;;;;;;5115707;28;19926;-82
2022/05/23 00:55:06;;;;;;;;;;;;;;;;;;5116935;27;20281;-82
2022/05/23 00:57:33;;;;;;;;;;;;;;;;;;5117394;28;19916;-81
2022/05/23 00:59:59;;;;;;;;;;;;;;;;;;5098887;28;19926;-82
2022/05/23 01:02:24;;;;;;;;;;;;;;;;;;5115504;28;19916;-81
2022/05/23 01:04:50;;;;;;;;;;;;;;;;;;5115545;28;19916;-81
2022/05/23 01:07:15;;;;;;;;;;;;;;;;;;5098486;28;19912;-81
2022/05/23 01:09:40;;;;;;;;;;;;;;;;;;5116862;28;20324;-81
2022/05/23 01:12:06;;;;;;;;;;;;;;;;;;5115504;28;20334;-82
2022/05/23 01:14:52;;;;;;;;;;;;;;;;;;5116805;28;19916;-82
2022/05/23 01:17:17;;;;;;;;;;;;;;;;;;5115811;28;19951;-82
2022/05/23 01:19:42;;;;;;;;;;;;;;;;;;5115174;28;19947;-81
2022/05/23 01:22:34;;;;;;;;;;;;;;;;;;5116382;28;20288;-80
2022/05/23 01:25:03;;;;;;;;;;;;;;;;;;5114051;28;20014;-81
2022/05/23 01:27:28;;;;;;;;;;;;;;;;;;5098470;28;20328;-81
2022/05/23 01:29:54;;;;;;;;;;;;;;;;;;5114958;28;19959;-81
2022/05/23 01:32:19;;;;;;;;;;;;;;;;;;5116242;28;19916;-81
2022/05/23 01:34:44;;;;;;;;;;;;;;;;;;5115068;28;19918;-81
2022/05/23 01:37:10;;;;;;;;;;;;;;;;;;5114698;28;20014;-81
2022/05/23 01:39:35;;;;;;;;;;;;;;;;;;5116070;28;19916;-81
2022/05/23 01:42:00;;;;;;;;;;;;;;;;;;5116214;28;20013;-81
2022/05/23 01:44:28;;;;;;;;;;;;;;;;;;5116310;28;19972;-81
2022/05/23 01:46:53;;;;;;;;;;;;;;;;;;5115539;28;20364;-81
2022/05/23 01:49:18;;;;;;;;;;;;;;;;;;5116120;28;19915;-81
2022/05/23 01:51:44;;;;;;;;;;;;;;;;;;5116184;28;19915;-81
2022/05/23 01:54:09;;;;;;;;;;;;;;;;;;5116561;28;19912;-82
2022/05/23 01:56:34;;;;;;;;;;;;;;;;;;5115717;28;19916;-81
2022/05/23 02:01:45;;;;;;;;;;;;;;;;;;5098041;28;19916;-81
2022/05/23 02:04:11;;;;;;;;;;;;;;;;;;5116560;28;20376;-81
2022/05/23 02:06:36;;;;;;;;;;;;;;;;;;5117195;28;20002;-79
2022/05/23 02:09:01;;;;;;;;;;;;;;;;;;5116196;28;19923;-81
2022/05/23 02:11:26;;;;;;;;;;;;;;;;;;5115890;28;20242;-80
2022/05/23 02:13:52;;;;;;;;;;;;;;;;;;5115719;28;20327;-81
2022/05/23 02:16:21;;;;;;;;;;;;;;;;;;5115737;28;19916;-82
2022/05/23 02:18:46;;;;;;;;;;;;;;;;;;5114735;28;19916;-83
2022/05/23 02:21:12;;;;;;;;;;;;;;;;;;5115483;28;19915;-82
2022/05/23 02:23:37;;;;;;;;;;;;;;;;;;5115698;28;19916;-82
2022/05/23 02:26:02;;;;;;;;;;;;;;;;;;5114412;28;19916;-82
2022/05/23 02:28:28;;;;;;;;;;;;;;;;;;5114147;28;19916;-81
2022/05/23 02:30:53;;;;;;;;;;;;;;;;;;5115685;28;19916;-81
2022/05/23 02:33:18;;;;;;;;;;;;;;;;;;5114468;28;19916;-81
2022/05/23 02:35:44;;;;;;;;;;;;;;;;;;5115431;28;19915;-79
2022/05/23 02:38:09;;;;;;;;;;;;;;;;;;5114212;28;19923;-81
2022/05/23 02:40:34;;;;;;;;;;;;;;;;;;5114123;28;20010;-81
2022/05/23 02:42:59;;;;;;;;;;;;;;;;;;5114044;28;20002;-81
2022/05/23 02:45:25;;;;;;;;;;;;;;;;;;5115266;28;20302;-80
2022/05/23 02:47:51;;;;;;;;;;;;;;;;;;5115575;28;20425;-81
2022/05/23 02:50:16;;;;;;;;;;;;;;;;;;5116762;28;19922;-81
2022/05/23 02:52:42;;;;;;;;;;;;;;;;;;5119618;28;20010;-81
2022/05/23 02:55:08;;;;;;;;;;;;;;;;;;5118695;28;19916;-81
2022/05/23 02:57:34;;;;;;;;;;;;;;;;;;5117813;28;19923;-81
2022/05/23 03:00:00;;;;;;;;;;;;;;;;;;5119400;28;19915;-80
2022/05/23 03:05:09;;;;;;;;;;;;;;;;;;5118100;28;19922;-81
2022/05/23 03:07:34;;;;;;;;;;;;;;;;;;5117797;28;19915;-80
2022/05/23 03:10:00;;;;;;;;;;;;;;;;;;5117720;28;19915;-80
2022/05/23 03:12:27;;;;;;;;;;;;;;;;;;5119016;28;20230;-81
2022/05/23 03:14:52;;;;;;;;;;;;;;;;;;5117690;28;19961;-80
2022/05/23 03:17:17;;;;;;;;;;;;;;;;;;5119018;28;19916;-81
2022/05/23 03:19:43;;;;;;;;;;;;;;;;;;5118767;28;19922;-81
2022/05/23 03:27:39;;;;;;;;;;;;;;;;;;5118404;28;20000;-81
2022/05/23 03:30:05;;;;;;;;;;;;;;;;;;5118524;28;19965;-81
2022/05/23 03:32:30;;;;;;;;;;;;;;;;;;5118827;28;19923;-81
2022/05/23 03:34:56;;;;;;;;;;;;;;;;;;5118458;28;19923;-81
2022/05/23 03:37:21;;;;;;;;;;;;;;;;;;5118952;28;19915;-80
2022/05/23 03:39:47;;;;;;;;;;;;;;;;;;5117422;28;19915;-81
2022/05/23 03:42:13;;;;;;;;;;;;;;;;;;5118412;28;19998;-81
2022/05/23 03:44:38;;;;;;;;;;;;;;;;;;5118874;28;19989;-81
2022/05/23 03:47:03;;;;;;;;;;;;;;;;;;5116925;28;19924;-81
2022/05/23 03:49:29;;;;;;;;;;;;;;;;;;5116936;28;19939;-81
2022/05/23 03:51:54;;;;;;;;;;;;;;;;;;5117061;28;19916;-81
2022/05/23 03:54:20;;;;;;;;;;;;;;;;;;5118154;28;19916;-81
2022/05/23 03:56:45;;;;;;;;;;;;;;;;;;5099808;28;20257;-81
2022/05/23 03:59:10;;;;;;;;;;;;;;;;;;5118015;28;20053;-81
2022/05/23 04:01:37;;;;;;;;;;;;;;;;;;5115597;28;19916;-80
2022/05/23 04:04:08;;;;;;;;;;;;;;;;;;5118256;28;19923;-81
2022/05/23 04:06:35;;;;;;;;;;;;;;;;;;5118506;28;19915;-79
2022/05/23 04:09:00;;;;;;;;;;;;;;;;;;5116747;28;19966;-80
2022/05/23 04:11:27;;;;;;;;;;;;;;;;;;5117676;28;19916;-80
2022/05/23 04:13:52;;;;;;;;;;;;;;;;;;5118210;28;19995;-80
2022/05/23 04:16:18;;;;;;;;;;;;;;;;;;5133489;27;20391;-81
2022/05/23 04:18:43;;;;;;;;;;;;;;;;;;5099487;28;20329;-83
2022/05/23 04:21:09;;;;;;;;;;;;;;;;;;5117963;28;19922;-82
2022/05/23 04:23:34;;;;;;;;;;;;;;;;;;5117491;28;19920;-81
2022/05/23 04:26:02;;;;;;;;;;;;;;;;;;5099215;28;19942;-81
2022/05/23 04:28:28;;;;;;;;;;;;;;;;;;5116090;28;19998;-77
2022/05/23 04:30:53;;;;;;;;;;;;;;;;;;5117616;28;19994;-78
2022/05/23 04:36:02;;;;;;;;;;;;;;;;;;5117301;28;20005;-78
2022/05/23 04:38:28;;;;;;;;;;;;;;;;;;5114202;28;20350;-79
2022/05/23 04:40:53;;;;;;;;;;;;;;;;;;5118201;28;19916;-80
2022/05/23 04:43:19;;;;;;;;;;;;;;;;;;5116280;28;19919;-79
2022/05/23 04:45:44;;;;;;;;;;;;;;;;;;5122935;28;19989;-78
2022/05/23 04:50:53;;;;;;;;;;;;;;;;;;5116605;28;19949;-78
2022/05/23 04:53:18;;;;;;;;;;;;;;;;;;5115304;28;19920;-80
2022/05/23 04:55:44;;;;;;;;;;;;;;;;;;5107971;28;20238;-79
2022/05/23 04:58:10;;;;;;;;;;;;;;;;;;5108493;28;19982;-77
2022/05/23 05:00:35;;;;;;;;;;;;;;;;;;5112149;28;19966;-79
2022/05/23 05:03:01;;;;;;;;;;;;;;;;;;5114085;28;20295;-81
2022/05/23 05:05:29;;;;;;;;;;;;;;;;;;5109878;28;19916;-79
2022/05/23 05:08:04;;;;;;;;;;;;;;;;;;5106759;28;19943;-78
2022/05/23 05:10:29;;;;;;;;;;;;;;;;;;5112534;28;20010;-76
2022/05/23 05:12:55;;;;;;;;;;;;;;;;;;5100859;28;20039;-79
2022/05/23 05:15:21;;;;;;;;;;;;;;;;;;5108428;28;19967;-79
2022/05/23 05:17:46;;;;;;;;;;;;;;;;;;5114403;28;19926;-79
2022/05/23 05:20:12;;;;;;;;;;;;;;;;;;5113497;28;19915;-80
2022/05/23 05:22:37;;;;;;;;;;;;;;;;;;5111380;28;19928;-78
2022/05/23 05:25:04;;;;;;;;;;;;;;;;;;5110122;28;20319;-76
2022/05/23 05:27:31;;;;;;;;;;;;;;;;;;5109468;27;20004;-78
2022/05/23 05:29:59;;;;;;;;;;;;;;;;;;5116157;27;20026;-78
2022/05/23 05:32:28;;;;;;;;;;;;;;;;;;5113912;28;20356;-77
2022/05/23 05:35:06;;;;;;;;;;;;;;;;;;5124970;27;20020;-77
2022/05/23 05:37:35;;;;;;;;;;;;;;;;;;5112900;28;20018;-80
2022/05/23 05:40:02;;;;;;;;;;;;;;;;;;5110460;28;19928;-78
2022/05/23 05:42:30;;;;;;;;;;;;;;;;;;5116804;27;20340;-81
2022/05/23 05:45:02;;;;;;;;;;;;;;;;;;5114094;28;20268;-79
2022/05/23 05:47:27;;;;;;;;;;;;;;;;;;5106100;28;19924;-79
2022/05/23 05:49:56;;;;;;;;;;;;;;;;;;5111839;28;20542;-84
2022/05/23 05:52:23;;;;;;;;;;;;;;;;;;5104402;28;20216;-77
2022/05/23 05:54:49;;;;;;;;;;;;;;;;;;5104742;28;19915;-81
2022/05/23 05:57:14;;;;;;;;;;;;;;;;;;5095775;28;20023;-78
2022/05/23 05:59:40;;;;;;;;;;;;;;;;;;5113696;28;20258;-78
2022/05/23 06:02:07;;;;;;;;;;;;;;;;;;5106931;28;19919;-78
2022/05/23 06:04:36;;;;;;;;;;;;;;;;;;5104955;28;19922;-76
2022/05/23 06:12:30;;;;;;;;;;;;;;;;;;5102882;28;20304;-78
2022/05/23 06:14:57;;;;;;;;;;;;;;;;;;5112856;28;19916;-77
2022/05/23 06:17:23;;;;;;;;;;;;;;;;;;5107187;28;19927;-77
2022/05/23 06:19:48;;;;;;;;;;;;;;;;;;5108864;28;20245;-75
2022/05/23 06:22:14;;;;;;;;;;;;;;;;;;5111011;28;19974;-75
2022/05/23 06:24:40;;;;;;;;;;;;;;;;;;5111421;28;20313;-77
2022/05/23 06:27:10;;;;;;;;;;;;;;;;;;5114140;28;19915;-74
2022/05/23 06:29:36;;;;;;;;;;;;;;;;;;5111940;28;19924;-74
2022/05/23 06:32:02;;;;;;;;;;;;;;;;;;5114653;28;20010;-74
2022/05/23 06:34:27;;;;;;;;;;;;;;;;;;5111314;28;20036;-75
2022/05/23 06:36:53;;;;;;;;;;;;;;;;;;5112633;28;19927;-77
2022/05/23 06:39:18;;;;;;;;;;;;;;;;;;5113861;28;20010;-78
2022/05/23 06:41:46;;;;;;;;;;;;;;;;;;5111550;28;19927;-79
2022/05/23 06:44:11;;;;;;;;;;;;;;;;;;5114987;28;20331;-79
2022/05/23 06:46:36;;;;;;;;;;;;;;;;;;5115903;28;19920;-80
2022/05/23 06:49:02;;;;;;;;;;;;;;;;;;5119204;28;19916;-84
2022/05/23 06:51:28;;;;;;;;;;;;;;;;;;5118696;28;19923;-78
2022/05/23 06:53:55;;;;;;;;;;;;;;;;;;5119411;28;19923;-79
2022/05/23 06:56:20;;;;;;;;;;;;;;;;;;5117143;28;20268;-80
2022/05/23 06:58:46;;;;;;;;;;;;;;;;;;5114051;28;19916;-78
2022/05/23 07:01:12;;;;;;;;;;;;;;;;;;5115406;28;20002;-79
2022/05/23 07:03:37;;;;;;;;;;;;;;;;;;5113290;28;19915;-77
2022/05/23 07:14:16;;;;;;;;;;;;;;;;;;5112325;28;19923;-77
2022/05/23 07:16:41;;;;;;;;;;;;;;;;;;5113533;28;19915;-79
2022/05/23 07:19:07;;;;;;;;;;;;;;;;;;5114905;28;19916;-78
2022/05/23 07:21:32;;;;;;;;;;;;;;;;;;5115586;28;19943;-78
2022/05/23 07:23:58;;;;;;;;;;;;;;;;;;5115275;28;19920;-76
2022/05/23 07:26:23;;;;;;;;;;;;;;;;;;5116247;28;20002;-76
2022/05/23 07:28:49;;;;;;;;;;;;;;;;;;5117825;28;19938;-78
2022/05/23 07:31:14;;;;;;;;;;;;;;;;;;5115261;28;19950;-78
2022/05/23 07:33:40;;;;;;;;;;;;;;;;;;5113886;28;19916;-78
2022/05/23 07:36:05;;;;;;;;;;;;;;;;;;5116101;28;20245;-77
2022/05/23 07:38:31;;;;;;;;;;;;;;;;;;5118829;28;19955;-76
2022/05/23 07:40:56;;;;;;;;;;;;;;;;;;5115959;28;20333;-77
2022/05/23 07:43:21;;;;;;;;;;;;;;;;;;5117348;28;20057;-76
2022/05/23 07:45:48;;;;;;;;;;;;;;;;;;5117701;28;19920;-77
2022/05/23 07:48:14;;;;;;;;;;;;;;;;;;5099574;28;19923;-77
2022/05/23 07:50:39;;;;;;;;;;;;;;;;;;5116802;28;20245;-78
2022/05/23 08:01:17;;;;;;;;;;;;;;;;;;5107374;28;20016;-76
2022/05/23 08:03:43;;;;;;;;;;;;;;;;;;5117050;28;20344;-78
2022/05/23 08:06:18;;;;;;;;;;;;;;;;;;5113595;28;20053;-77
2022/05/23 08:08:43;;;;;;;;;;;;;;;;;;5114566;28;19984;-78
2022/05/23 08:11:09;;;;;;;;;;;;;;;;;;5113350;28;20068;-76
2022/05/23 08:13:35;;;;;;;;;;;;;;;;;;5114123;28;19916;-75
2022/05/23 08:16:00;;;;;;;;;;;;;;;;;;5116073;28;19916;-77
2022/05/23 08:18:28;;;;;;;;;;;;;;;;;;5115900;28;20109;-78
2022/05/23 08:20:54;;;;;;;;;;;;;;;;;;5115532;28;19916;-77
2022/05/23 08:23:19;;;;;;;;;;;;;;;;;;5116788;28;20212;-76
2022/05/23 08:25:44;;;;;;;;;;;;;;;;;;5117674;28;19918;-77
2022/05/23 08:28:10;;;;;;;;;;;;;;;;;;5117267;28;19916;-75
2022/05/23 08:30:44;;;;;;;;;;;;;;;;;;5117029;28;19919;-77
2022/05/23 08:33:11;;;;;;;;;;;;;;;;;;5117630;28;20320;-77
2022/05/23 08:35:36;;;;;;;;;;;;;;;;;;5119578;28;19935;-80
2022/05/23 08:38:02;;;;;;;;;;;;;;;;;;5124397;28;20321;-81
2022/05/23 08:40:45;;;;;;;;;;;;;;;;;;5126582;28;19916;-82
2022/05/23 08:43:17;;;;;;;;;;;;;;;;;;5124448;28;19920;-81
2022/05/23 08:45:44;;;;;;;;;;;;;;;;;;5120575;28;19927;-80
2022/05/23 08:48:15;;;;;;;;;;;;;;;;;;5114614;28;19920;-82
2022/05/23 08:50:54;;;;;;;;;;;;;;;;;;5119733;28;19946;-79
2022/05/23 08:53:40;;;;;;;;;;;;;;;;;;5118107;28;19919;-80
2022/05/23 08:56:26;;;;;;;;;;;;;;;;;;5112457;28;19916;-86
2022/05/23 08:58:56;;;;;;;;;;;;;;;;;;5117822;28;19975;-82
2022/05/23 09:01:25;;;;;;;;;;;;;;;;;;5114336;28;19943;-82
2022/05/23 09:04:00;;;;;;;;;;;;;;;;;;5117630;28;19919;-87
2022/05/23 09:06:26;;;;;;;;;;;;;;;;;;5115697;28;19930;-82
2022/05/23 09:08:54;;;;;;;;;;;;;;;;;;5119627;28;20069;-79
2022/05/23 09:11:20;;;;;;;;;;;;;;;;;;5119578;28;19928;-82
2022/05/23 09:13:45;;;;;;;;;;;;;;;;;;5118710;28;20015;-80
2022/05/23 09:16:12;;;;;;;;;;;;;;;;;;5117256;27;19959;-77
2022/05/23 09:18:45;;;;;;;;;;;;;;;;;;5116166;28;19915;-78
2022/05/23 09:21:10;;;;;;;;;;;;;;;;;;5115139;28;19920;-78
2022/05/23 09:23:50;;;;;;;;;;;;;;;;;;5116403;28;20300;-78
2022/05/23 09:26:20;;;;;;;;;;;;;;;;;;5116080;28;19949;-76
2022/05/23 09:28:46;;;;;;;;;;;;;;;;;;5115139;28;19920;-78
2022/05/23 09:31:30;;;;;;;;;;;;;;;;;;5115073;28;20018;-77
2022/05/23 09:33:56;;;;;;;;;;;;;;;;;;5114010;28;20329;-77
2022/05/23 09:36:32;;;;;;;;;;;;;;;;;;5116111;27;19920;-80
2022/05/23 09:38:57;;;;;;;;;;;;;;;;;;5111700;28;19982;-79
2022/05/23 09:47:44;;;;;;;;;;;;;;;;;;5115176;28;20272;-78
2022/05/23 09:49:46;;;;;;;;;;;;;;;;;;5113038;28;19958;-77
2022/05/23 09:52:18;;;;;;;;;;;;;;;;;;5112005;28;20317;-77
2022/05/23 09:54:48;;;;;;;;;;;;;;;;;;5114542;28;19981;-79
2022/05/23 09:57:34;;;;;;;;;;;;;;;;;;5113604;28;19919;-78
2022/05/23 10:00:00;;;;;;;;;;;;;;;;;;5110557;28;20317;-77
2022/05/23 10:02:38;;;;;;;;;;;;;;;;;;5113314;28;19923;-79
2022/05/23 10:05:20;;;;;;;;;;;;;;;;;;5113320;28;19947;-76
2022/05/23 10:07:47;;;;;;;;;;;;;;;;;;5113376;28;20374;-77
2022/05/23 10:10:23;;;;;;;;;;;;;;;;;;5114556;28;19972;-80
2022/05/23 10:12:51;;;;;;;;;;;;;;;;;;5114335;28;20307;-81
2022/05/23 10:15:20;;;;;;;;;;;;;;;;;;5113665;28;19926;-83
2022/05/23 10:17:46;;;;;;;;;;;;;;;;;;5116488;28;20427;-81
2022/05/23 10:20:37;;;;;;;;;;;;;;;;;;5113380;28;19923;-83
2022/05/23 10:23:13;;;;;;;;;;;;;;;;;;5114361;28;19951;-81
2022/05/23 10:25:40;;;;;;;;;;;;;;;;;;5115237;28;20313;-81
2022/05/23 10:28:13;;;;;;;;;;;;;;;;;;5116740;28;19916;-79
2022/05/23 10:30:40;;;;;;;;;;;;;;;;;;5115837;28;20306;-79
2022/05/23 10:33:15;;;;;;;;;;;;;;;;;;5103121;28;20268;-75
2022/05/23 10:35:44;;;;;;;;;;;;;;;;;;5114310;28;20196;-81
2022/05/23 10:44:06;;;;;;;;;;;;;;;;;;5106942;28;20015;-80
2022/05/23 10:46:34;;;;;;;;;;;;;;;;;;5111332;28;20010;-80
2022/05/23 10:48:59;;;;;;;;;;;;;;;;;;5111090;28;20269;-79
2022/05/23 10:51:25;;;;;;;;;;;;;;;;;;5114357;28;19916;-79
2022/05/23 10:53:50;;;;;;;;;;;;;;;;;;5119277;28;19920;-82
2022/05/23 10:56:22;;;;;;;;;;;;;;;;;;5115767;28;19920;-80
2022/05/23 10:58:47;;;;;;;;;;;;;;;;;;5113795;28;20317;-81
2022/05/23 11:01:31;;;;;;;;;;;;;;;;;;5115324;28;19977;-78
2022/05/23 11:04:01;;;;;;;;;;;;;;;;;;5112476;28;20337;-77
2022/05/23 11:06:31;;;;;;;;;;;;;;;;;;5112635;28;19915;-78
2022/05/23 11:09:03;;;;;;;;;;;;;;;;;;5111892;28;19915;-79
2022/05/23 11:11:40;;;;;;;;;;;;;;;;;;5116141;28;19915;-79
2022/05/23 11:14:08;;;;;;;;;;;;;;;;;;5118603;28;19916;-78
2022/05/23 11:16:33;;;;;;;;;;;;;;;;;;5117643;28;20010;-80
2022/05/23 11:19:11;;;;;;;;;;;;;;;;;;5118558;28;19951;-79
2022/05/23 11:21:42;;;;;;;;;;;;;;;;;;5117365;28;20374;-77
2022/05/23 11:24:10;;;;;;;;;;;;;;;;;;5117768;28;19916;-79
2022/05/23 11:26:37;;;;;;;;;;;;;;;;;;5110112;28;19950;-80
2022/05/23 11:34:55;;;;;;;;;;;;;;;;;;5094717;28;19945;-77
2022/05/23 11:39:51;;;;;;;;;;;;;;;;;;5093933;28;20328;-77
2022/05/23 11:42:19;;;;;;;;;;;;;;;;;;5093404;28;19923;-78
2022/05/23 11:44:45;;;;;;;;;;;;;;;;;;5095409;28;20314;-79
2022/05/23 11:47:17;;;;;;;;;;;;;;;;;;5096125;28;19920;-78
2022/05/23 11:49:44;;;;;;;;;;;;;;;;;;5096665;28;19915;-79
2022/05/23 11:52:17;;;;;;;;;;;;;;;;;;5096925;28;19923;-75
2022/05/23 11:54:42;;;;;;;;;;;;;;;;;;5094707;28;20036;-77
2022/05/23 11:57:29;;;;;;;;;;;;;;;;;;5095077;28;20324;-76
2022/05/23 11:59:54;;;;;;;;;;;;;;;;;;5094661;28;20261;-76
2022/05/23 12:02:20;;;;;;;;;;;;;;;;;;5096615;28;20008;-77
2022/05/23 12:04:48;;;;;;;;;;;;;;;;;;5096845;28;19916;-77
2022/05/23 12:07:32;;;;;;;;;;;;;;;;;;5096904;28;19923;-78
2022/05/23 12:10:36;;;;;;;;;;;;;;;;;;5096816;28;19985;-78
2022/05/23 12:13:11;;;;;;;;;;;;;;;;;;5096521;28;19916;-78
2022/05/23 12:15:43;;;;;;;;;;;;;;;;;;5095775;28;20004;-78
2022/05/23 12:18:11;;;;;;;;;;;;;;;;;;5103777;28;19919;-78
2022/05/23 12:20:43;;;;;;;;;;;;;;;;;;5095060;28;19916;-79
2022/05/23 12:23:12;;;;;;;;;;;;;;;;;;5094270;28;20043;-79
2022/05/23 12:25:38;;;;;;;;;;;;;;;;;;5111970;28;19938;-79
2022/05/23 12:28:07;;;;;;;;;;;;;;;;;;5113598;28;19920;-76
2022/05/23 12:30:33;;;;;;;;;;;;;;;;;;5114070;28;19933;-76
2022/05/23 12:32:58;;;;;;;;;;;;;;;;;;5114513;27;20002;-77
2022/05/23 12:35:30;;;;;;;;;;;;;;;;;;5113695;28;20034;-76
2022/05/23 12:38:05;;;;;;;;;;;;;;;;;;5115239;28;19991;-77
2022/05/23 12:40:39;;;;;;;;;;;;;;;;;;5115255;28;19923;-77
2022/05/23 12:43:04;;;;;;;;;;;;;;;;;;5116028;28;19916;-76
2022/05/23 12:45:32;;;;;;;;;;;;;;;;;;5116307;28;19926;-77
2022/05/23 12:48:01;;;;;;;;;;;;;;;;;;5116354;28;19916;-77
2022/05/23 12:50:34;;;;;;;;;;;;;;;;;;5116290;28;20266;-76
2022/05/23 12:53:06;;;;;;;;;;;;;;;;;;5097614;28;19923;-77
2022/05/23 12:55:51;;;;;;;;;;;;;;;;;;5116486;28;20330;-77
2022/05/23 12:58:16;;;;;;;;;;;;;;;;;;5116299;28;19922;-77
2022/05/23 13:00:51;;;;;;;;;;;;;;;;;;5116167;28;19915;-77
2022/05/23 13:03:26;;;;;;;;;;;;;;;;;;5115094;28;20321;-77
2022/05/23 13:06:13;;;;;;;;;;;;;;;;;;5116582;28;20325;-77
2022/05/23 13:08:47;;;;;;;;;;;;;;;;;;5116300;28;19915;-77
2022/05/23 13:11:33;;;;;;;;;;;;;;;;;;5116446;28;19971;-77
2022/05/23 13:13:59;;;;;;;;;;;;;;;;;;5116124;28;20273;-76
2022/05/23 13:16:25;;;;;;;;;;;;;;;;;;5114752;28;19916;-77
2022/05/23 13:27:04;;;;;;;;;;;;;;;;;;5115535;28;20265;-77
2022/05/23 13:29:29;;;;;;;;;;;;;;;;;;5116034;27;19916;-75
2022/05/23 13:32:03;;;;;;;;;;;;;;;;;;5116136;28;19923;-77
2022/05/23 13:34:33;;;;;;;;;;;;;;;;;;5113879;28;20283;-77
2022/05/23 13:36:58;;;;;;;;;;;;;;;;;;5114004;28;19922;-78
2022/05/23 13:39:23;;;;;;;;;;;;;;;;;;5114301;28;19916;-76
2022/05/23 13:41:49;;;;;;;;;;;;;;;;;;5115791;28;20241;-76
2022/05/23 13:44:21;;;;;;;;;;;;;;;;;;5114084;28;19911;-76
2022/05/23 13:46:46;;;;;;;;;;;;;;;;;;5114620;28;20367;-77
2022/05/23 13:49:20;;;;;;;;;;;;;;;;;;5114357;28;19976;-76
2022/05/23 13:51:52;;;;;;;;;;;;;;;;;;5113974;28;19920;-78
2022/05/23 13:54:19;;;;;;;;;;;;;;;;;;5113939;28;19923;-77
2022/05/23 13:56:45;;;;;;;;;;;;;;;;;;5115465;28;20258;-78
2022/05/23 13:59:22;;;;;;;;;;;;;;;;;;5115281;28;19981;-81
2022/05/23 14:01:49;;;;;;;;;;;;;;;;;;5098932;28;19916;-81
2022/05/23 14:04:14;;;;;;;;;;;;;;;;;;5115458;28;19916;-82
2022/05/23 14:06:41;;;;;;;;;;;;;;;;;;5114360;28;19923;-82
2022/05/23 14:09:06;;;;;;;;;;;;;;;;;;5114455;28;19916;-82
2022/05/23 14:11:32;;;;;;;;;;;;;;;;;;5115120;28;20415;-81
2022/05/23 14:13:58;;;;;;;;;;;;;;;;;;5114826;28;19916;-81
2022/05/23 14:16:24;;;;;;;;;;;;;;;;;;5115715;28;19915;-82
2022/05/23 14:19:03;;;;;;;;;;;;;;;;;;5114149;28;19994;-82
2022/05/23 14:21:33;;;;;;;;;;;;;;;;;;5114577;28;20018;-82
2022/05/23 14:23:59;;;;;;;;;;;;;;;;;;5114615;28;20263;-81
2022/05/23 14:26:24;;;;;;;;;;;;;;;;;;5116037;28;19916;-83
2022/05/23 14:28:54;;;;;;;;;;;;;;;;;;5116020;28;19922;-84
2022/05/23 14:31:38;;;;;;;;;;;;;;;;;;5097571;28;20329;-80
2022/05/23 14:34:08;;;;;;;;;;;;;;;;;;5113895;28;20015;-82
2022/05/23 14:36:34;;;;;;;;;;;;;;;;;;5114349;28;19938;-80
2022/05/23 14:39:00;;;;;;;;;;;;;;;;;;5116594;28;19920;-82
2022/05/23 14:41:34;;;;;;;;;;;;;;;;;;5101210;28;19916;-82
2022/05/23 14:44:06;;;;;;;;;;;;;;;;;;5118984;28;19916;-79
2022/05/23 14:46:32;;;;;;;;;;;;;;;;;;5124917;28;19919;-81
2022/05/23 14:48:58;;;;;;;;;;;;;;;;;;5118094;28;20003;-82
2022/05/23 14:51:36;;;;;;;;;;;;;;;;;;5119566;28;20003;-83
2022/05/23 14:56:49;;;;;;;;;;;;;;;;;;5119832;28;19968;-82
2022/05/23 15:02:02;;;;;;;;;;;;;;;;;;5119123;28;20302;-81
2022/05/23 15:04:30;;;;;;;;;;;;;;;;;;5118203;28;20003;-83
2022/05/23 15:06:56;;;;;;;;;;;;;;;;;;5101028;28;19923;-82
2022/05/23 15:09:22;;;;;;;;;;;;;;;;;;5118354;28;19916;-81
2022/05/23 15:11:47;;;;;;;;;;;;;;;;;;5117877;28;19920;-82
2022/05/23 15:14:13;;;;;;;;;;;;;;;;;;5117578;28;19916;-81
2022/05/23 15:16:38;;;;;;;;;;;;;;;;;;5117579;28;19916;-82
2022/05/23 15:19:08;;;;;;;;;;;;;;;;;;5119011;28;19916;-80
2022/05/23 15:21:34;;;;;;;;;;;;;;;;;;5119311;28;19916;-80
2022/05/23 15:23:59;;;;;;;;;;;;;;;;;;5118067;28;20295;-79
2022/05/23 15:26:25;;;;;;;;;;;;;;;;;;5118203;28;19923;-83
2022/05/23 15:28:51;;;;;;;;;;;;;;;;;;5118789;28;19916;-82
2022/05/23 15:31:17;;;;;;;;;;;;;;;;;;5117896;28;19939;-80
2022/05/23 15:33:42;;;;;;;;;;;;;;;;;;5118962;28;20352;-85
2022/05/23 15:36:08;;;;;;;;;;;;;;;;;;5119354;28;20265;-83
2022/05/23 15:38:33;;;;;;;;;;;;;;;;;;5118698;28;19947;-83
2022/05/23 15:40:58;;;;;;;;;;;;;;;;;;5117288;28;19923;-83
2022/05/23 15:43:24;;;;;;;;;;;;;;;;;;5118474;28;19980;-80
2022/05/23 15:45:49;;;;;;;;;;;;;;;;;;5116816;28;19978;-81
2022/05/23 15:48:15;;;;;;;;;;;;;;;;;;5117391;28;19916;-81
2022/05/23 15:50:44;;;;;;;;;;;;;;;;;;5117521;28;19918;-81
2022/05/23 15:53:10;;;;;;;;;;;;;;;;;;5118596;28;20644;-81
2022/05/23 15:55:35;;;;;;;;;;;;;;;;;;5118698;28;19912;-82
2022/05/23 15:58:00;;;;;;;;;;;;;;;;;;5118329;28;19916;-81
2022/05/23 16:00:27;;;;;;;;;;;;;;;;;;5116696;28;19951;-81
2022/05/23 16:03:04;;;;;;;;;;;;;;;;;;5119097;28;20317;-83
2022/05/23 16:05:29;;;;;;;;;;;;;;;;;;5118453;28;19954;-82
2022/05/23 16:07:55;;;;;;;;;;;;;;;;;;5118045;28;19955;-81
2022/05/23 16:10:20;;;;;;;;;;;;;;;;;;5118327;28;19915;-81
2022/05/23 16:12:47;;;;;;;;;;;;;;;;;;5118199;28;19922;-83
2022/05/23 16:15:16;;;;;;;;;;;;;;;;;;5116449;28;19916;-82
2022/05/23 16:17:43;;;;;;;;;;;;;;;;;;5116783;28;20256;-81
2022/05/23 16:20:08;;;;;;;;;;;;;;;;;;5117801;28;19922;-80
2022/05/23 16:22:33;;;;;;;;;;;;;;;;;;5116612;28;19916;-82
2022/05/23 16:24:59;;;;;;;;;;;;;;;;;;5099578;28;20294;-80
2022/05/23 16:27:24;;;;;;;;;;;;;;;;;;5117648;28;19916;-80
2022/05/23 16:29:50;;;;;;;;;;;;;;;;;;5117973;28;20283;-82
2022/05/23 16:37:43;;;;;;;;;;;;;;;;;;5117349;28;19963;-81
2022/05/23 16:40:08;;;;;;;;;;;;;;;;;;5117715;28;19951;-82
2022/05/23 16:42:35;;;;;;;;;;;;;;;;;;5117103;28;19941;-81
2022/05/23 16:45:01;;;;;;;;;;;;;;;;;;5116932;28;19916;-81
2022/05/23 16:47:26;;;;;;;;;;;;;;;;;;5117339;28;19920;-81
2022/05/23 16:49:53;;;;;;;;;;;;;;;;;;5117189;28;20305;-82
2022/05/23 16:52:18;;;;;;;;;;;;;;;;;;5117337;28;19916;-81
2022/05/23 16:54:44;;;;;;;;;;;;;;;;;;5117247;28;19915;-80
2022/05/23 16:57:12;;;;;;;;;;;;;;;;;;5117029;28;19920;-82
2022/05/23 16:59:37;;;;;;;;;;;;;;;;;;5117020;28;19961;-81
2022/05/23 17:02:03;;;;;;;;;;;;;;;;;;5117021;28;19919;-82
2022/05/23 17:04:28;;;;;;;;;;;;;;;;;;5117301;28;19915;-82
2022/05/23 17:06:53;;;;;;;;;;;;;;;;;;5117037;28;19998;-81
2022/05/23 17:09:19;;;;;;;;;;;;;;;;;;5116485;28;19923;-82
2022/05/23 17:11:44;;;;;;;;;;;;;;;;;;5116578;28;20360;-81
2022/05/23 17:14:10;;;;;;;;;;;;;;;;;;5117155;28;19923;-82
2022/05/23 17:16:35;;;;;;;;;;;;;;;;;;5098865;28;19916;-80
2022/05/23 17:19:01;;;;;;;;;;;;;;;;;;5116801;28;19939;-83
2022/05/23 17:21:26;;;;;;;;;;;;;;;;;;5116416;28;20394;-82
2022/05/23 17:23:51;;;;;;;;;;;;;;;;;;5115117;28;20018;-83
2022/05/23 17:26:17;;;;;;;;;;;;;;;;;;5115604;28;19920;-82
2022/05/23 17:28:42;;;;;;;;;;;;;;;;;;5115174;28;19916;-83
2022/05/23 17:31:09;;;;;;;;;;;;;;;;;;5115446;28;19920;-82
2022/05/23 17:33:34;;;;;;;;;;;;;;;;;;5098629;28;20222;-83
2022/05/23 17:35:59;;;;;;;;;;;;;;;;;;5115048;28;19922;-83
2022/05/23 17:38:25;;;;;;;;;;;;;;;;;;5115201;28;19923;-81
2022/05/23 17:40:50;;;;;;;;;;;;;;;;;;5098097;28;19922;-81
2022/05/23 17:43:16;;;;;;;;;;;;;;;;;;5114816;28;20311;-82
2022/05/23 17:45:41;;;;;;;;;;;;;;;;;;5114933;28;19927;-83
2022/05/23 17:48:07;;;;;;;;;;;;;;;;;;5098192;28;19995;-80
2022/05/23 17:50:35;;;;;;;;;;;;;;;;;;5116269;28;19940;-81
2022/05/23 17:53:16;;;;;;;;;;;;;;;;;;5116435;28;19981;-81
2022/05/23 17:55:44;;;;;;;;;;;;;;;;;;5099744;28;19955;-83
2022/05/23 17:58:09;;;;;;;;;;;;;;;;;;5115857;28;19939;-82
2022/05/23 18:00:37;;;;;;;;;;;;;;;;;;5115777;28;20337;-81
2022/05/23 18:03:02;;;;;;;;;;;;;;;;;;5115793;28;20049;-82
2022/05/23 18:05:28;;;;;;;;;;;;;;;;;;5115078;28;19998;-83
2022/05/23 18:07:54;;;;;;;;;;;;;;;;;;5115753;28;19926;-81
2022/05/23 18:10:19;;;;;;;;;;;;;;;;;;5097797;28;19916;-82
2022/05/23 18:12:45;;;;;;;;;;;;;;;;;;5115483;28;19916;-82
2022/05/23 18:20:38;;;;;;;;;;;;;;;;;;5113528;28;19923;-82